LOWS/SZG METAR and TAF weather

Enter ICAO airport designator
Station Type Date Time Source
LOWS METAR 2022/01/26 08:20 UTC NOAA

LOWS 260820Z 18004KT 150V220 8000 FEW003 BKN004 M02/M02 Q1030 TEMPO BKN005


Station Type Date Time Source
LOWS Decoded METAR 2022/01/26 08:20 UTC NOAA

Salzburg-Flughafen, Austria (LOWS) 47-48N 013-00E 450M
Jan 26, 2022 - 03:20 AM EST / 2022.01.26 0820 UTC
Wind: from the S (180 degrees) at 5 MPH (4 KT) (direction variable):0
Visibility: 4 mile(s):0
Sky conditions: mostly cloudy
Temperature: 28 F (-2 C)
Windchill: 23 F (-5 C):1
Dew Point: 28 F (-2 C)
Relative Humidity: 100%
Pressure (altimeter): 30.42 in. Hg (1030 hPa)
ob: LOWS 260820Z 18004KT 150V220 8000 FEW003 BKN004 M02/M02 Q1030 TEMPO BKN005
cycle: 8

Station Type Date Time Source
LOWS TAF 2022/01/26 06:21 UTC NOAA

TAF LOWS 260515Z 2606/2706 VRB02KT 6000 BKN006 TX02/2614Z TNM03/2706Z PROB30
TEMPO 2606/2609 0200 FZFG VV002
TEMPO 2609/2619 4000 BKN003 PROB30
TEMPO 2611/2616 SCT005
TEMPO 2619/2706 0300 FZFG VV002

Example: see airport list